Time;durP1;ratioP1;P1;durP2;ratioP2;P2;SDS_P1;SDS_P2;PMS_P1;PMS_P2;Temp;Humidity;BMP_temperature;BMP_pressure;BME280_temperature;BME280_humidity;BME280_pressure;Samples;Min_cycle;Max_cycle;Signal;HPM_P1;HPM_P2
2023/11/05 00:00:53;;;;;;;0.30;0.10;;;9.70;99.90;;;;;;5132680;27;20414;-60
2023/11/05 00:03:21;;;;;;;0.30;0.10;;;9.70;99.90;;;;;;5131911;27;20421;-60
2023/11/05 00:05:48;;;;;;;0.50;0.20;;;9.70;99.90;;;;;;5133000;27;20842;-60
2023/11/05 00:08:15;;;;;;;0.90;0.10;;;9.80;99.90;;;;;;5133686;27;20430;-59
2023/11/05 00:10:42;;;;;;;0.30;0.10;;;9.80;99.90;;;;;;5133030;27;20863;-60
2023/11/05 00:13:09;;;;;;;0.30;0.10;;;9.80;99.90;;;;;;5132895;27;20426;-60
2023/11/05 00:15:36;;;;;;;0.30;0.10;;;9.80;99.90;;;;;;5131830;27;20415;-60
2023/11/05 00:18:03;;;;;;;0.40;0.10;;;9.70;99.90;;;;;;5132508;27;20418;-60
2023/11/05 00:20:32;;;;;;;0.40;0.10;;;9.70;99.90;;;;;;5132723;27;20422;-61
2023/11/05 00:22:59;;;;;;;0.70;0.10;;;9.70;99.90;;;;;;5132432;27;20478;-60
2023/11/05 00:25:28;;;;;;;0.40;0.13;;;9.80;99.90;;;;;;5132406;27;20415;-60
2023/11/05 00:27:55;;;;;;;0.40;0.10;;;9.70;99.90;;;;;;5132682;27;20418;-60
2023/11/05 00:30:22;;;;;;;0.60;0.10;;;9.80;99.90;;;;;;5133272;27;20470;-59
2023/11/05 00:32:49;;;;;;;0.30;0.10;;;9.70;99.90;;;;;;5132451;27;20502;-60
2023/11/05 00:35:16;;;;;;;0.40;0.10;;;9.80;99.90;;;;;;5131740;27;20422;-60
2023/11/05 00:37:44;;;;;;;0.30;0.10;;;9.80;99.90;;;;;;5132194;27;20422;-60
2023/11/05 00:40:12;;;;;;;0.50;0.10;;;9.80;99.90;;;;;;5131784;27;20488;-60
2023/11/05 00:42:39;;;;;;;1.20;0.10;;;9.70;99.90;;;;;;5131576;27;20648;-60
2023/11/05 00:45:07;;;;;;;0.40;0.10;;;9.70;99.90;;;;;;5131892;27;20786;-60
2023/11/05 00:47:34;;;;;;;0.30;0.10;;;9.80;99.90;;;;;;5131469;27;20486;-61
2023/11/05 00:50:01;;;;;;;2.10;0.10;;;9.80;99.90;;;;;;5131763;27;20738;-60
2023/11/05 00:52:29;;;;;;;0.30;0.10;;;9.80;99.90;;;;;;5132090;27;20429;-60
2023/11/05 00:54:57;;;;;;;0.32;0.10;;;9.80;99.90;;;;;;5131946;27;20449;-60
2023/11/05 00:57:24;;;;;;;0.30;0.10;;;9.90;99.90;;;;;;5131286;27;20699;-61
2023/11/05 00:59:51;;;;;;;0.30;0.10;;;9.80;99.90;;;;;;5132263;27;20631;-60
2023/11/05 01:02:18;;;;;;;0.90;0.20;;;9.70;99.90;;;;;;5135696;27;20414;-60
2023/11/05 01:04:45;;;;;;;0.30;0.10;;;9.70;99.90;;;;;;5135649;27;20426;-60
2023/11/05 01:07:12;;;;;;;0.30;0.10;;;9.70;99.90;;;;;;5136276;27;20449;-60
2023/11/05 01:09:39;;;;;;;0.60;0.10;;;9.70;99.90;;;;;;5135356;27;20577;-61
2023/11/05 01:12:08;;;;;;;0.50;0.20;;;9.70;99.90;;;;;;5135727;27;20414;-61
2023/11/05 01:14:35;;;;;;;0.40;0.20;;;9.70;99.90;;;;;;5135891;27;20790;-59
2023/11/05 01:17:02;;;;;;;0.30;0.10;;;9.70;99.90;;;;;;5134835;27;20470;-61
2023/11/05 01:19:29;;;;;;;0.40;0.10;;;9.80;99.90;;;;;;5134198;27;20487;-61
2023/11/05 01:21:56;;;;;;;0.30;0.10;;;9.80;99.90;;;;;;5134726;27;20857;-59
2023/11/05 01:24:23;;;;;;;0.30;0.10;;;9.80;99.90;;;;;;5134183;27;20414;-60
2023/11/05 01:26:50;;;;;;;0.30;0.10;;;9.90;99.90;;;;;;5134674;27;20845;-61
2023/11/05 01:29:18;;;;;;;0.30;0.10;;;9.90;99.90;;;;;;5134402;27;20473;-60
2023/11/05 01:31:45;;;;;;;0.77;0.10;;;9.80;99.90;;;;;;5135092;27;20981;-61
2023/11/05 01:34:12;;;;;;;0.90;0.10;;;9.90;99.90;;;;;;5134906;27;20721;-61
2023/11/05 01:36:39;;;;;;;0.40;0.10;;;10.00;99.90;;;;;;5134772;27;20418;-60
2023/11/05 01:39:07;;;;;;;0.40;0.10;;;9.90;99.90;;;;;;5135118;27;20415;-60
2023/11/05 01:41:34;;;;;;;0.40;0.20;;;9.80;99.90;;;;;;5135363;27;20421;-60
2023/11/05 01:44:01;;;;;;;0.30;0.10;;;9.80;99.90;;;;;;5134935;27;20586;-61
2023/11/05 01:46:30;;;;;;;0.70;0.10;;;9.80;99.90;;;;;;5134242;27;20422;-61
2023/11/05 01:48:58;;;;;;;0.40;0.10;;;9.80;99.90;;;;;;5133368;27;20431;-58
2023/11/05 01:51:27;;;;;;;0.30;0.10;;;9.80;99.90;;;;;;5134593;27;20768;-61
2023/11/05 01:53:56;;;;;;;0.30;0.10;;;9.90;99.90;;;;;;5135512;27;20534;-61
2023/11/05 01:56:25;;;;;;;0.30;0.10;;;9.90;99.90;;;;;;5135273;27;20509;-59
2023/11/05 01:58:53;;;;;;;0.30;0.20;;;10.10;99.90;;;;;;5135744;27;20415;-58
2023/11/05 02:01:20;;;;;;;0.40;0.10;;;10.00;99.90;;;;;;5134982;27;20414;-60
2023/11/05 02:03:48;;;;;;;0.90;0.10;;;10.00;99.90;;;;;;5135009;27;20442;-61
2023/11/05 02:06:15;;;;;;;0.40;0.10;;;10.10;99.90;;;;;;5134854;27;20410;-60
2023/11/05 02:08:43;;;;;;;0.60;0.10;;;10.20;99.90;;;;;;5134245;27;20427;-61
2023/11/05 02:11:10;;;;;;;0.30;0.10;;;10.20;99.90;;;;;;5134735;27;20475;-61
2023/11/05 02:13:47;;;;;;;0.55;0.10;;;10.20;99.90;;;;;;5132588;27;20500;-58
2023/11/05 02:16:15;;;;;;;0.30;0.10;;;10.20;99.90;;;;;;5133011;27;20437;-61
2023/11/05 02:18:42;;;;;;;0.43;0.10;;;10.20;99.90;;;;;;5134051;27;20414;-61
2023/11/05 02:21:15;;;;;;;0.30;0.10;;;10.20;99.90;;;;;;5134093;27;20410;-59
2023/11/05 02:23:44;;;;;;;0.40;0.20;;;10.30;99.90;;;;;;5133057;27;20445;-58
2023/11/05 02:26:11;;;;;;;0.50;0.20;;;10.30;99.90;;;;;;5132683;27;20472;-60
2023/11/05 02:28:37;;;;;;;0.30;0.10;;;10.30;99.90;;;;;;5132861;27;20426;-61
2023/11/05 02:31:05;;;;;;;1.30;0.25;;;10.30;99.90;;;;;;5134527;27;20422;-60
2023/11/05 02:33:32;;;;;;;0.30;0.10;;;10.30;99.90;;;;;;5133896;27;20474;-61
2023/11/05 02:35:59;;;;;;;0.43;0.10;;;10.40;99.90;;;;;;5134692;27;20418;-61
2023/11/05 02:38:26;;;;;;;0.40;0.10;;;10.40;99.90;;;;;;5133567;27;20475;-61
2023/11/05 02:40:54;;;;;;;1.20;0.10;;;10.40;99.90;;;;;;5134427;27;20463;-59
2023/11/05 02:43:21;;;;;;;0.80;0.20;;;10.50;99.90;;;;;;5134543;27;20936;-60
2023/11/05 02:45:48;;;;;;;0.50;0.10;;;10.50;99.90;;;;;;5133983;27;20834;-60
2023/11/05 02:48:15;;;;;;;0.70;0.20;;;10.50;99.90;;;;;;5134471;27;20846;-60
2023/11/05 02:50:43;;;;;;;0.43;0.20;;;10.60;99.90;;;;;;5133946;27;20435;-61
2023/11/05 02:53:11;;;;;;;0.68;0.20;;;10.60;99.90;;;;;;5133872;27;20422;-60
2023/11/05 02:55:38;;;;;;;0.40;0.10;;;10.70;99.90;;;;;;5133879;27;20414;-60
2023/11/05 02:58:06;;;;;;;0.30;0.10;;;10.70;99.90;;;;;;5133431;27;20426;-61
2023/11/05 03:00:34;;;;;;;0.40;0.20;;;10.80;99.90;;;;;;5133795;27;20544;-61
2023/11/05 03:03:01;;;;;;;0.70;0.20;;;10.90;99.90;;;;;;5133281;27;20421;-61
2023/11/05 03:05:28;;;;;;;1.17;0.20;;;10.80;99.90;;;;;;5133856;27;20422;-60
2023/11/05 03:07:55;;;;;;;0.40;0.10;;;10.80;99.90;;;;;;5133959;27;20420;-60
2023/11/05 03:10:22;;;;;;;0.40;0.10;;;10.80;99.90;;;;;;5133701;27;20434;-58
2023/11/05 03:12:49;;;;;;;1.30;0.20;;;10.80;99.90;;;;;;5132292;27;20415;-61
2023/11/05 03:15:17;;;;;;;1.40;0.10;;;10.90;99.90;;;;;;5133485;27;20511;-59
2023/11/05 03:17:44;;;;;;;0.30;0.10;;;10.90;99.90;;;;;;5131916;27;20418;-58
2023/11/05 03:20:12;;;;;;;1.10;0.10;;;10.90;99.90;;;;;;5130855;27;20422;-59
2023/11/05 03:22:40;;;;;;;1.10;0.20;;;10.90;99.90;;;;;;5130945;27;20426;-58
2023/11/05 03:25:10;;;;;;;0.40;0.10;;;10.80;99.90;;;;;;5129966;27;20546;-59
2023/11/05 03:27:37;;;;;;;2.20;0.17;;;10.90;99.90;;;;;;5129923;27;21074;-59
2023/11/05 03:30:08;;;;;;;0.30;0.10;;;10.90;99.90;;;;;;5131220;27;20499;-59
2023/11/05 03:32:38;;;;;;;0.30;0.10;;;10.90;99.90;;;;;;5131117;27;20421;-60
2023/11/05 03:35:05;;;;;;;0.60;0.10;;;11.00;99.90;;;;;;5132085;27;20494;-59
2023/11/05 03:37:33;;;;;;;0.30;0.10;;;11.10;99.90;;;;;;5132951;27;20429;-59
2023/11/05 03:39:59;;;;;;;0.40;0.10;;;11.00;99.90;;;;;;5132704;27;20422;-60
2023/11/05 03:42:26;;;;;;;0.40;0.10;;;11.00;99.90;;;;;;5132692;27;20483;-59
2023/11/05 03:44:53;;;;;;;1.10;0.10;;;10.90;99.90;;;;;;5132765;27;20791;-58
2023/11/05 03:47:20;;;;;;;0.50;0.10;;;11.00;99.90;;;;;;5132958;27;20419;-59
2023/11/05 03:49:49;;;;;;;0.50;0.10;;;11.00;99.90;;;;;;5133582;27;20771;-59
2023/11/05 03:52:16;;;;;;;0.40;0.10;;;11.00;99.90;;;;;;5133208;27;20892;-60
2023/11/05 03:54:43;;;;;;;0.40;0.20;;;11.00;99.90;;;;;;5133563;27;20692;-59
2023/11/05 03:57:10;;;;;;;0.45;0.10;;;11.10;99.90;;;;;;5132808;27;20862;-60
2023/11/05 03:59:37;;;;;;;0.40;0.10;;;11.10;99.90;;;;;;5132111;27;20849;-59
2023/11/05 04:02:04;;;;;;;0.50;0.20;;;11.10;99.90;;;;;;5132192;27;20422;-59
2023/11/05 04:04:31;;;;;;;0.70;0.13;;;11.20;99.90;;;;;;5132327;27;20729;-59
2023/11/05 04:07:03;;;;;;;0.70;0.10;;;11.10;99.90;;;;;;5132591;27;20422;-59
2023/11/05 04:09:30;;;;;;;1.08;0.10;;;11.00;99.90;;;;;;5131907;27;20430;-59
2023/11/05 04:11:57;;;;;;;0.97;0.10;;;11.00;99.90;;;;;;5132325;27;20471;-60
2023/11/05 04:14:24;;;;;;;0.50;0.10;;;11.00;99.90;;;;;;5131274;27;20475;-59
2023/11/05 04:16:51;;;;;;;0.40;0.10;;;11.00;99.90;;;;;;5131339;27;20550;-59
2023/11/05 04:19:18;;;;;;;0.40;0.10;;;11.00;99.90;;;;;;5130831;27;20418;-60
2023/11/05 04:21:45;;;;;;;0.60;0.20;;;11.00;99.90;;;;;;5131173;27;20410;-59
2023/11/05 04:24:14;;;;;;;0.40;0.10;;;11.00;99.90;;;;;;5131169;27;20422;-59
2023/11/05 04:26:41;;;;;;;1.60;0.10;;;10.90;99.90;;;;;;5131784;27;20763;-60
2023/11/05 04:29:08;;;;;;;0.40;0.20;;;10.90;99.90;;;;;;5131173;27;20418;-59
2023/11/05 04:31:35;;;;;;;0.60;0.10;;;10.80;99.90;;;;;;5132020;27;20423;-60
2023/11/05 04:34:02;;;;;;;0.60;0.20;;;10.70;99.90;;;;;;5131820;27;20902;-59
2023/11/05 04:36:29;;;;;;;0.40;0.10;;;10.70;99.90;;;;;;5131260;27;20497;-59
2023/11/05 04:38:56;;;;;;;0.60;0.10;;;10.70;99.90;;;;;;5132177;27;20772;-60
2023/11/05 04:41:23;;;;;;;0.50;0.20;;;10.80;99.90;;;;;;5132878;27;20768;-60
2023/11/05 04:43:50;;;;;;;1.70;0.20;;;10.90;99.90;;;;;;5132377;27;20849;-60
2023/11/05 04:46:17;;;;;;;0.35;0.10;;;10.90;99.90;;;;;;5131730;27;20414;-59
2023/11/05 04:48:44;;;;;;;0.30;0.20;;;11.00;99.90;;;;;;5131590;27;20434;-60
2023/11/05 04:51:11;;;;;;;1.40;0.20;;;11.00;99.90;;;;;;5130846;27;20533;-60
2023/11/05 04:53:38;;;;;;;0.35;0.10;;;10.90;99.90;;;;;;5129547;27;20422;-60
2023/11/05 04:56:06;;;;;;;0.50;0.20;;;10.90;99.90;;;;;;5129384;27;20465;-60
2023/11/05 04:58:35;;;;;;;0.80;0.10;;;10.90;99.90;;;;;;5129830;27;20929;-59
2023/11/05 05:01:02;;;;;;;0.40;0.10;;;10.90;99.90;;;;;;5130715;27;20507;-59
2023/11/05 05:03:29;;;;;;;0.50;0.20;;;10.90;99.90;;;;;;5131103;27;20592;-59
2023/11/05 05:05:55;;;;;;;1.02;0.10;;;10.90;99.90;;;;;;5129727;27;20776;-60
2023/11/05 05:08:22;;;;;;;0.40;0.17;;;10.80;99.90;;;;;;5130594;27;21142;-59
2023/11/05 05:10:49;;;;;;;0.55;0.10;;;10.70;99.90;;;;;;5130631;27;20502;-59
2023/11/05 05:13:16;;;;;;;2.40;0.17;;;10.80;99.90;;;;;;5131392;27;20780;-59
2023/11/05 05:15:45;;;;;;;0.70;0.10;;;10.70;99.90;;;;;;5131748;27;20775;-59
2023/11/05 05:18:12;;;;;;;0.40;0.10;;;10.70;99.90;;;;;;5131624;27;20415;-59
2023/11/05 05:20:39;;;;;;;0.30;0.10;;;10.70;99.90;;;;;;5131226;27;20610;-59
2023/11/05 05:23:06;;;;;;;0.70;0.20;;;10.60;99.90;;;;;;5131811;27;20634;-59
2023/11/05 05:25:33;;;;;;;0.50;0.10;;;10.60;99.90;;;;;;5131285;27;20698;-59
2023/11/05 05:28:00;;;;;;;0.50;0.20;;;10.50;99.90;;;;;;5131940;27;20422;-59
2023/11/05 05:30:27;;;;;;;0.45;0.10;;;10.50;99.90;;;;;;5130972;27;20414;-60
2023/11/05 05:32:55;;;;;;;1.20;0.20;;;10.60;99.90;;;;;;5131521;27;20414;-60
2023/11/05 05:35:22;;;;;;;0.40;0.20;;;10.70;99.90;;;;;;5131550;27;20755;-60
2023/11/05 05:37:50;;;;;;;0.50;0.10;;;10.70;99.90;;;;;;5132032;27;20415;-60
2023/11/05 05:40:17;;;;;;;0.50;0.20;;;10.60;99.90;;;;;;5131084;27;20431;-59
2023/11/05 05:42:45;;;;;;;1.30;0.10;;;10.60;99.90;;;;;;5131167;27;20707;-60
2023/11/05 05:45:13;;;;;;;0.80;0.10;;;10.60;99.90;;;;;;5129472;27;20500;-59
2023/11/05 05:47:41;;;;;;;0.40;0.10;;;10.60;99.90;;;;;;5132443;27;20419;-60
2023/11/05 05:50:10;;;;;;;0.40;0.10;;;10.60;99.90;;;;;;5133614;27;20498;-59
2023/11/05 05:52:38;;;;;;;0.40;0.15;;;10.50;99.90;;;;;;5134002;27;20736;-59
2023/11/05 05:55:09;;;;;;;0.40;0.10;;;10.50;99.90;;;;;;5133009;27;20525;-60
2023/11/05 05:57:36;;;;;;;0.40;0.10;;;10.40;99.90;;;;;;5132215;27;20897;-60
2023/11/05 06:00:04;;;;;;;1.40;0.15;;;10.40;99.90;;;;;;5133830;27;20488;-61
2023/11/05 06:02:31;;;;;;;0.90;0.10;;;10.50;99.90;;;;;;5134950;27;20479;-60
2023/11/05 06:04:58;;;;;;;0.40;0.20;;;10.40;99.90;;;;;;5132939;27;20426;-60
2023/11/05 06:07:31;;;;;;;0.40;0.20;;;10.30;99.90;;;;;;5132545;27;20925;-60
2023/11/05 06:09:58;;;;;;;0.40;0.10;;;10.30;99.90;;;;;;5134511;27;20433;-60
2023/11/05 06:12:25;;;;;;;1.10;0.20;;;10.20;99.90;;;;;;5134198;27;20511;-60
2023/11/05 06:14:52;;;;;;;0.70;0.10;;;10.20;99.90;;;;;;5134626;27;20467;-60
2023/11/05 06:17:19;;;;;;;0.30;0.10;;;10.20;99.90;;;;;;5133860;27;20500;-60
2023/11/05 06:19:46;;;;;;;0.50;0.20;;;10.30;99.90;;;;;;5134129;27;20426;-60
2023/11/05 06:22:13;;;;;;;1.10;0.10;;;10.30;99.90;;;;;;5134407;27;20775;-60
2023/11/05 06:24:43;;;;;;;0.50;0.10;;;10.30;99.90;;;;;;5133147;27;20417;-60
2023/11/05 06:27:10;;;;;;;0.30;0.10;;;10.30;99.90;;;;;;5133719;27;20410;-60
2023/11/05 06:29:37;;;;;;;1.00;0.10;;;10.20;99.90;;;;;;5133689;27;20842;-60
2023/11/05 06:32:04;;;;;;;0.50;0.10;;;10.30;99.90;;;;;;5134851;27;20834;-60
2023/11/05 06:34:31;;;;;;;0.50;0.10;;;10.30;99.90;;;;;;5133973;27;20462;-60
2023/11/05 06:36:59;;;;;;;0.50;0.20;;;10.30;99.90;;;;;;5133740;27;20422;-58
2023/11/05 06:39:27;;;;;;;0.52;0.10;;;10.30;99.90;;;;;;5133275;27;20479;-58
2023/11/05 06:41:55;;;;;;;1.00;0.10;;;10.30;99.90;;;;;;5133607;27;20417;-60
2023/11/05 06:44:23;;;;;;;0.40;0.10;;;10.30;99.90;;;;;;5133311;27;20467;-61
2023/11/05 06:46:50;;;;;;;0.40;0.20;;;10.30;99.90;;;;;;5133598;27;20429;-58
2023/11/05 06:49:17;;;;;;;2.30;0.10;;;10.30;99.90;;;;;;5132937;27;20471;-60
2023/11/05 06:51:44;;;;;;;0.30;0.10;;;10.30;99.90;;;;;;5133056;27;20429;-61
2023/11/05 06:54:11;;;;;;;0.40;0.10;;;10.40;99.90;;;;;;5132745;27;20420;-60
2023/11/05 06:56:38;;;;;;;0.30;0.10;;;10.40;99.90;;;;;;5132852;27;20707;-60
2023/11/05 06:59:07;;;;;;;0.30;0.10;;;10.40;99.90;;;;;;5131868;27;20554;-61
2023/11/05 07:01:34;;;;;;;0.50;0.10;;;10.50;99.90;;;;;;5133191;27;20548;-60
2023/11/05 07:04:01;;;;;;;0.30;0.10;;;10.60;99.90;;;;;;5133652;27;20483;-60
2023/11/05 07:06:30;;;;;;;0.30;0.10;;;10.60;99.90;;;;;;5132539;27;20471;-60
2023/11/05 07:08:57;;;;;;;0.30;0.10;;;10.70;99.90;;;;;;5132323;27;20686;-60
2023/11/05 07:11:24;;;;;;;0.50;0.10;;;10.70;99.90;;;;;;5132616;27;20426;-58
2023/11/05 07:13:52;;;;;;;0.40;0.10;;;10.70;99.90;;;;;;5132188;27;20411;-57
2023/11/05 07:16:20;;;;;;;0.40;0.10;;;10.80;99.90;;;;;;5133401;27;20514;-60
2023/11/05 07:18:47;;;;;;;0.30;0.10;;;10.90;99.90;;;;;;5131677;27;20418;-58
2023/11/05 07:21:14;;;;;;;0.40;0.10;;;10.90;99.90;;;;;;5131818;27;20402;-58
2023/11/05 07:23:42;;;;;;;0.30;0.10;;;11.00;99.90;;;;;;5132150;27;20414;-59
2023/11/05 07:26:09;;;;;;;0.30;0.10;;;11.10;99.90;;;;;;5132534;27;20729;-59
2023/11/05 07:28:36;;;;;;;0.75;0.10;;;11.10;99.90;;;;;;5131757;27;20418;-59
2023/11/05 07:31:04;;;;;;;0.30;0.10;;;11.00;99.90;;;;;;5131775;27;20422;-59
2023/11/05 07:33:32;;;;;;;0.40;0.10;;;11.00;99.90;;;;;;5132523;27;20472;-59
2023/11/05 07:36:01;;;;;;;0.30;0.10;;;11.10;99.90;;;;;;5131546;27;20407;-59
2023/11/05 07:38:29;;;;;;;0.70;0.10;;;11.20;99.90;;;;;;5132905;27;20422;-59
2023/11/05 07:40:57;;;;;;;0.40;0.20;;;11.20;99.90;;;;;;5129565;27;20421;-59
2023/11/05 07:43:25;;;;;;;0.40;0.10;;;11.20;99.90;;;;;;5130633;27;20426;-59
2023/11/05 07:45:52;;;;;;;0.30;0.10;;;11.40;99.90;;;;;;5130390;27;20837;-58
2023/11/05 07:48:19;;;;;;;0.30;0.10;;;11.50;99.90;;;;;;5129603;27;20846;-59
2023/11/05 07:50:50;;;;;;;0.40;0.10;;;11.50;99.90;;;;;;5129095;27;20438;-58
2023/11/05 07:53:17;;;;;;;0.38;0.10;;;11.60;99.90;;;;;;5127666;27;20488;-58
2023/11/05 07:55:44;;;;;;;0.30;0.10;;;11.60;99.90;;;;;;5129614;27;20418;-58
2023/11/05 07:58:12;;;;;;;0.50;0.10;;;11.60;99.90;;;;;;5130192;27;20430;-58
2023/11/05 08:00:40;;;;;;;1.00;0.10;;;11.70;99.90;;;;;;5130241;27;20419;-59
2023/11/05 08:03:08;;;;;;;0.52;0.10;;;11.80;99.90;;;;;;5130598;27;20453;-59
2023/11/05 08:05:35;;;;;;;0.30;0.10;;;12.00;99.90;;;;;;5129213;27;20422;-59
2023/11/05 08:08:04;;;;;;;0.30;0.10;;;12.00;99.90;;;;;;5130398;27;20554;-59
2023/11/05 08:10:31;;;;;;;1.70;0.10;;;12.20;99.90;;;;;;5128100;27;20418;-60
2023/11/05 08:12:58;;;;;;;0.40;0.10;;;12.30;99.90;;;;;;5127612;27;20426;-56
2023/11/05 08:15:25;;;;;;;0.30;0.10;;;12.40;99.90;;;;;;5128197;27;20767;-58
2023/11/05 08:17:52;;;;;;;0.40;0.10;;;12.50;99.90;;;;;;5129047;27;20853;-60
2023/11/05 08:20:19;;;;;;;0.30;0.10;;;12.70;99.90;;;;;;5129273;27;20422;-59
2023/11/05 08:22:46;;;;;;;0.30;0.10;;;12.70;99.90;;;;;;5129069;27;20455;-58
2023/11/05 08:25:21;;;;;;;0.30;0.10;;;12.70;99.90;;;;;;5130235;27;20906;-59
2023/11/05 08:27:48;;;;;;;0.50;0.20;;;12.50;99.90;;;;;;5131637;27;20419;-59
2023/11/05 08:30:17;;;;;;;0.70;0.10;;;12.30;99.90;;;;;;5131660;27;20490;-58
2023/11/05 08:32:44;;;;;;;1.80;0.50;;;12.10;99.90;;;;;;5130605;27;20430;-58
2023/11/05 08:35:12;;;;;;;2.13;0.60;;;12.00;99.90;;;;;;5130736;27;20414;-58
2023/11/05 08:37:40;;;;;;;4.10;1.05;;;12.00;99.90;;;;;;5130293;27;20461;-58
2023/11/05 08:40:09;;;;;;;2.28;0.80;;;12.00;99.90;;;;;;5129395;27;20521;-61
2023/11/05 08:42:38;;;;;;;2.45;0.90;;;11.90;99.90;;;;;;5130484;27;20403;-58
2023/11/05 08:45:06;;;;;;;3.97;1.30;;;12.00;99.90;;;;;;5130126;27;20491;-59
2023/11/05 08:47:33;;;;;;;4.07;1.20;;;12.00;99.90;;;;;;5130999;27;20922;-59
2023/11/05 08:50:01;;;;;;;0.90;0.40;;;12.00;99.90;;;;;;5129103;27;20438;-58
2023/11/05 08:52:28;;;;;;;0.60;0.20;;;12.00;99.90;;;;;;5128350;27;20434;-59
2023/11/05 08:54:55;;;;;;;0.88;0.40;;;12.00;99.90;;;;;;5129165;27;20415;-59
2023/11/05 08:57:22;;;;;;;0.70;0.30;;;12.00;99.90;;;;;;5127502;27;20853;-58
2023/11/05 08:59:51;;;;;;;5.03;2.10;;;12.10;99.90;;;;;;5127922;27;20462;-60
2023/11/05 09:02:18;;;;;;;8.88;4.07;;;12.20;99.90;;;;;;5126910;27;20487;-60
2023/11/05 09:04:46;;;;;;;13.18;6.60;;;12.20;99.90;;;;;;5128482;27;20525;-59
2023/11/05 09:07:13;;;;;;;4.93;2.17;;;12.20;99.90;;;;;;5127965;27;20429;-58
2023/11/05 09:09:40;;;;;;;2.42;0.60;;;12.20;99.90;;;;;;5127713;27;20417;-59
2023/11/05 09:12:09;;;;;;;1.20;0.40;;;12.30;99.90;;;;;;5129435;27;20426;-59
2023/11/05 09:14:36;;;;;;;0.70;0.40;;;12.30;99.90;;;;;;5129171;27;20900;-59
2023/11/05 09:17:06;;;;;;;0.50;0.20;;;12.30;99.90;;;;;;5129401;27;20543;-60
2023/11/05 09:19:33;;;;;;;0.57;0.28;;;12.40;99.90;;;;;;5129308;28;20462;-58
2023/11/05 09:22:00;;;;;;;0.40;0.10;;;12.40;99.90;;;;;;5130617;27;20410;-60
2023/11/05 09:24:29;;;;;;;0.40;0.20;;;12.50;99.90;;;;;;5132535;27;20780;-61
2023/11/05 09:26:56;;;;;;;0.90;0.20;;;12.60;99.90;;;;;;5133322;27;20495;-60
2023/11/05 09:29:23;;;;;;;0.50;0.20;;;12.80;99.90;;;;;;5133570;27;20478;-60
2023/11/05 09:31:50;;;;;;;0.30;0.10;;;13.00;99.90;;;;;;5133192;27;20430;-59
2023/11/05 09:34:20;;;;;;;0.68;0.20;;;12.90;99.90;;;;;;5130428;27;20437;-60
2023/11/05 09:36:47;;;;;;;0.40;0.10;;;13.00;99.90;;;;;;5130169;27;20471;-60
2023/11/05 09:39:14;;;;;;;0.30;0.10;;;12.90;99.90;;;;;;5129959;27;20475;-61
2023/11/05 09:41:41;;;;;;;0.30;0.10;;;12.90;99.90;;;;;;5130517;27;20415;-61
2023/11/05 09:44:08;;;;;;;0.70;0.20;;;13.00;99.90;;;;;;5131801;27;20414;-61
2023/11/05 09:46:35;;;;;;;1.60;0.10;;;13.10;99.90;;;;;;5131197;27;20422;-60
2023/11/05 09:49:02;;;;;;;0.30;0.10;;;13.00;99.90;;;;;;5132042;27;20422;-61
2023/11/05 09:51:31;;;;;;;0.30;0.10;;;13.00;99.90;;;;;;5130574;27;20846;-61
2023/11/05 09:53:58;;;;;;;0.30;0.10;;;13.10;99.90;;;;;;5134119;27;20861;-62
2023/11/05 09:56:26;;;;;;;1.50;0.20;;;12.90;99.90;;;;;;5133482;27;20586;-61
2023/11/05 09:58:53;;;;;;;0.30;0.10;;;13.00;99.90;;;;;;5132584;27;20901;-61
2023/11/05 10:01:20;;;;;;;0.90;0.10;;;12.90;99.90;;;;;;5132830;27;20490;-62
2023/11/05 10:03:47;;;;;;;0.85;0.10;;;13.00;99.90;;;;;;5134352;27;20438;-61
2023/11/05 10:06:18;;;;;;;0.30;0.10;;;13.10;99.90;;;;;;5133472;27;20409;-61
2023/11/05 10:08:46;;;;;;;0.30;0.10;;;13.10;99.90;;;;;;5133750;27;20433;-60
2023/11/05 10:11:13;;;;;;;0.30;0.10;;;13.00;99.90;;;;;;5133353;27;20414;-61
2023/11/05 10:13:40;;;;;;;0.50;0.10;;;12.90;99.90;;;;;;5134126;27;20415;-60
2023/11/05 10:16:09;;;;;;;0.40;0.10;;;12.90;99.90;;;;;;5133409;27;20483;-60
2023/11/05 10:18:38;;;;;;;0.30;0.10;;;12.70;99.90;;;;;;5132878;27;20419;-59
2023/11/05 10:21:05;;;;;;;0.30;0.10;;;12.70;99.90;;;;;;5132012;27;20425;-60
2023/11/05 10:23:51;;;;;;;0.30;0.10;;;12.70;99.90;;;;;;5131579;27;20419;-61
2023/11/05 10:26:28;;;;;;;0.90;0.10;;;12.80;99.90;;;;;;5132668;27;20415;-61
2023/11/05 10:28:55;;;;;;;0.30;0.10;;;12.80;99.90;;;;;;5132104;27;20818;-59
2023/11/05 10:31:23;;;;;;;0.50;0.10;;;12.60;99.90;;;;;;5131548;27;20827;-61
2023/11/05 10:33:52;;;;;;;0.30;0.10;;;12.70;99.90;;;;;;5130521;27;20433;-60
2023/11/05 10:36:19;;;;;;;0.40;0.10;;;12.70;99.90;;;;;;5131006;27;20565;-60
2023/11/05 10:38:48;;;;;;;0.70;0.10;;;12.60;99.90;;;;;;5131878;27;20458;-61
2023/11/05 10:41:17;;;;;;;0.30;0.10;;;12.40;99.90;;;;;;5132225;27;20813;-59
2023/11/05 10:43:45;;;;;;;0.40;0.17;;;12.40;99.90;;;;;;5132030;27;20411;-58
2023/11/05 10:46:13;;;;;;;1.10;0.20;;;12.30;1.00;;;;;;5131673;27;20422;-57
2023/11/05 10:48:42;;;;;;;0.80;0.10;;;12.20;1.00;;;;;;5132145;27;20825;-59
2023/11/05 10:51:10;;;;;;;0.60;0.20;;;12.00;1.00;;;;;;5129696;27;20449;-58
2023/11/05 10:53:39;;;;;;;0.50;0.20;;;12.10;1.00;;;;;;5129216;27;20430;-58
2023/11/05 10:56:33;;;;;;;0.50;0.20;;;12.20;1.00;;;;;;5128503;27;20427;-58
2023/11/05 10:59:02;;;;;;;0.52;0.20;;;12.20;1.00;;;;;;5129375;27;20521;-59
2023/11/05 11:01:30;;;;;;;0.40;0.20;;;12.00;1.00;;;;;;5128232;27;20722;-56
2023/11/05 11:04:08;;;;;;;0.40;0.10;;;11.90;6.00;;;;;;5127753;27;20434;-57
2023/11/05 11:06:35;;;;;;;0.40;0.10;;;11.80;17.20;;;;;;5127356;27;20730;-55
2023/11/05 11:09:09;;;;;;;0.45;0.20;;;11.80;23.10;;;;;;5127352;27;20484;-58
2023/11/05 11:11:39;;;;;;;0.70;0.10;;;11.80;36.90;;;;;;5128430;27;20492;-57
2023/11/05 11:14:06;;;;;;;0.30;0.10;;;11.80;17.50;;;;;;5127793;27;20723;-58
2023/11/05 11:16:37;;;;;;;0.30;0.10;;;11.80;32.30;;;;;;5128578;27;20480;-58
2023/11/05 11:19:12;;;;;;;0.30;0.10;;;11.70;1.00;;;;;;5129597;27;20468;-58
2023/11/05 11:21:44;;;;;;;0.30;0.10;;;11.60;6.40;;;;;;5129912;27;20442;-59
2023/11/05 11:24:31;;;;;;;0.50;0.10;;;11.80;7.40;;;;;;5130181;27;20438;-59
2023/11/05 11:27:00;;;;;;;0.30;0.10;;;11.80;3.80;;;;;;5129672;27;20771;-59
2023/11/05 11:29:27;;;;;;;0.40;0.10;;;11.80;1.00;;;;;;5130529;27;20426;-59
2023/11/05 11:31:55;;;;;;;0.40;0.10;;;11.70;1.00;;;;;;5131257;27;20430;-57
2023/11/05 11:34:22;;;;;;;0.30;0.10;;;11.60;1.00;;;;;;5130076;27;20454;-59
2023/11/05 11:36:59;;;;;;;0.50;0.10;;;11.70;35.20;;;;;;5131399;27;20418;-59
2023/11/05 11:39:27;;;;;;;1.30;0.20;;;11.70;38.10;;;;;;5130728;27;20553;-59
2023/11/05 11:41:54;;;;;;;0.30;0.10;;;11.90;50.60;;;;;;5131118;27;20407;-59
2023/11/05 11:44:23;;;;;;;0.30;0.10;;;11.90;11.60;;;;;;5131338;27;20418;-59
2023/11/05 11:46:50;;;;;;;0.30;0.10;;;11.90;11.80;;;;;;5131391;27;20487;-59
2023/11/05 11:49:18;;;;;;;0.40;0.10;;;12.00;10.20;;;;;;5131492;27;20429;-59
2023/11/05 11:51:45;;;;;;;0.80;0.20;;;12.00;14.10;;;;;;5131344;27;20418;-59
2023/11/05 11:54:12;;;;;;;0.30;0.10;;;12.10;8.20;;;;;;5129663;27;20528;-59
2023/11/05 11:56:40;;;;;;;0.40;0.10;;;12.20;16.90;;;;;;5128977;27;20437;-58
2023/11/05 11:59:08;;;;;;;0.38;0.10;;;12.20;11.30;;;;;;5129365;27;20549;-59
2023/11/05 12:01:39;;;;;;;0.35;0.10;;;12.20;14.20;;;;;;5128677;27;20422;-58
2023/11/05 12:04:07;;;;;;;0.40;0.10;;;12.20;20.20;;;;;;5129168;27;20487;-59
2023/11/05 12:06:40;;;;;;;0.70;0.20;;;12.20;14.90;;;;;;5128863;27;20598;-60
2023/11/05 12:09:08;;;;;;;0.30;0.10;;;12.30;42.50;;;;;;5131559;27;20810;-59
2023/11/05 12:11:35;;;;;;;0.30;0.10;;;12.30;1.00;;;;;;5129409;27;20769;-60
2023/11/05 12:14:03;;;;;;;0.60;0.20;;;12.40;1.00;;;;;;5129838;27;20430;-60
2023/11/05 12:16:30;;;;;;;0.40;0.20;;;12.50;1.00;;;;;;5129201;27;20448;-59
2023/11/05 12:18:59;;;;;;;0.50;0.20;;;12.70;1.00;;;;;;5129643;27;20482;-60
2023/11/05 12:21:26;;;;;;;0.30;0.10;;;12.80;1.00;;;;;;5131033;27;21012;-60
2023/11/05 12:23:54;;;;;;;0.30;0.10;;;12.70;1.00;;;;;;5129885;27;20465;-59
2023/11/05 12:26:21;;;;;;;0.30;0.10;;;12.70;1.00;;;;;;5131002;27;20525;-60
2023/11/05 12:28:48;;;;;;;0.40;0.15;;;12.60;1.00;;;;;;5129316;27;20485;-60
2023/11/05 12:31:15;;;;;;;0.40;0.10;;;12.50;1.00;;;;;;5130847;27;20419;-60
2023/11/05 12:33:43;;;;;;;0.40;0.10;;;12.60;1.00;;;;;;5130604;27;20487;-60
2023/11/05 12:36:11;;;;;;;1.60;0.20;;;12.60;1.00;;;;;;5130578;27;20443;-61
2023/11/05 12:38:38;;;;;;;0.40;0.10;;;12.60;1.00;;;;;;5130820;27;20422;-60
2023/11/05 12:41:05;;;;;;;0.40;0.10;;;12.70;1.00;;;;;;5128964;27;20422;-60
2023/11/05 12:43:33;;;;;;;0.40;0.10;;;12.80;1.00;;;;;;5129625;27;20508;-60
2023/11/05 12:46:00;;;;;;;0.40;0.20;;;13.00;1.00;;;;;;5128766;27;20446;-61
2023/11/05 12:48:27;;;;;;;0.70;0.20;;;13.00;1.00;;;;;;5128442;27;20917;-59
2023/11/05 12:50:54;;;;;;;0.40;0.10;;;13.10;1.00;;;;;;5130266;27;20696;-61
2023/11/05 12:53:23;;;;;;;0.30;0.10;;;13.10;1.00;;;;;;5129771;27;20430;-59